sensor_id;sensor_type;location;lat;lon;timestamp;P1;durP1;ratioP1;P2;durP2;ratioP2
17890;SDS011;9071;48.220;14.480;2023-03-24T00:00:29;12.00;;;7.60;;
17890;SDS011;9071;48.220;14.480;2023-03-24T00:05:31;12.20;;;7.53;;
17890;SDS011;9071;48.220;14.480;2023-03-24T00:10:35;11.87;;;6.87;;
17890;SDS011;9071;48.220;14.480;2023-03-24T00:15:37;11.90;;;7.37;;
17890;SDS011;9071;48.220;14.480;2023-03-24T00:20:39;11.90;;;7.47;;
17890;SDS011;9071;48.220;14.480;2023-03-24T00:25:43;9.37;;;7.30;;
17890;SDS011;9071;48.220;14.480;2023-03-24T00:30:48;11.17;;;7.17;;
17890;SDS011;9071;48.220;14.480;2023-03-24T00:35:52;11.00;;;7.53;;
17890;SDS011;9071;48.220;14.480;2023-03-24T00:40:58;12.23;;;7.80;;
17890;SDS011;9071;48.220;14.480;2023-03-24T00:46:01;15.03;;;7.90;;
17890;SDS011;9071;48.220;14.480;2023-03-24T00:51:05;10.10;;;7.60;;
17890;SDS011;9071;48.220;14.480;2023-03-24T00:56:11;11.70;;;7.80;;
17890;SDS011;9071;48.220;14.480;2023-03-24T01:01:14;11.97;;;8.13;;
17890;SDS011;9071;48.220;14.480;2023-03-24T01:06:17;13.83;;;8.17;;
17890;SDS011;9071;48.220;14.480;2023-03-24T01:11:24;13.03;;;7.70;;
17890;SDS011;9071;48.220;14.480;2023-03-24T01:16:27;14.07;;;8.10;;
17890;SDS011;9071;48.220;14.480;2023-03-24T01:21:30;14.10;;;8.90;;
17890;SDS011;9071;48.220;14.480;2023-03-24T01:26:35;13.07;;;8.93;;
17890;SDS011;9071;48.220;14.480;2023-03-24T01:31:37;13.90;;;8.07;;
17890;SDS011;9071;48.220;14.480;2023-03-24T01:36:40;10.57;;;8.10;;
17890;SDS011;9071;48.220;14.480;2023-03-24T01:41:43;12.37;;;8.20;;
17890;SDS011;9071;48.220;14.480;2023-03-24T01:46:45;14.07;;;8.30;;
17890;SDS011;9071;48.220;14.480;2023-03-24T01:51:49;12.87;;;8.97;;
17890;SDS011;9071;48.220;14.480;2023-03-24T01:56:57;11.03;;;7.97;;
17890;SDS011;9071;48.220;14.480;2023-03-24T02:02:03;12.50;;;8.77;;
17890;SDS011;9071;48.220;14.480;2023-03-24T02:07:08;13.47;;;8.30;;
17890;SDS011;9071;48.220;14.480;2023-03-24T02:12:17;12.70;;;8.10;;
17890;SDS011;9071;48.220;14.480;2023-03-24T02:17:24;11.93;;;7.90;;
17890;SDS011;9071;48.220;14.480;2023-03-24T02:28:27;14.10;;;8.33;;
17890;SDS011;9071;48.220;14.480;2023-03-24T02:33:52;16.17;;;8.60;;
17890;SDS011;9071;48.220;14.480;2023-03-24T02:45:25;12.03;;;7.80;;
17890;SDS011;9071;48.220;14.480;2023-03-24T02:50:35;9.70;;;7.57;;
17890;SDS011;9071;48.220;14.480;2023-03-24T02:55:42;14.23;;;8.67;;
17890;SDS011;9071;48.220;14.480;2023-03-24T03:00:49;12.80;;;7.97;;
17890;SDS011;9071;48.220;14.480;2023-03-24T03:05:59;10.83;;;6.93;;
17890;SDS011;9071;48.220;14.480;2023-03-24T03:11:04;12.73;;;7.90;;
17890;SDS011;9071;48.220;14.480;2023-03-24T03:16:12;20.67;;;9.60;;
17890;SDS011;9071;48.220;14.480;2023-03-24T03:21:18;15.30;;;10.43;;
17890;SDS011;9071;48.220;14.480;2023-03-24T03:26:24;19.63;;;10.33;;
17890;SDS011;9071;48.220;14.480;2023-03-24T03:31:34;17.97;;;11.20;;
17890;SDS011;9071;48.220;14.480;2023-03-24T03:36:43;24.20;;;12.07;;
17890;SDS011;9071;48.220;14.480;2023-03-24T03:41:50;17.20;;;11.57;;
17890;SDS011;9071;48.220;14.480;2023-03-24T03:46:54;25.93;;;11.73;;
17890;SDS011;9071;48.220;14.480;2023-03-24T03:51:56;18.67;;;11.97;;
17890;SDS011;9071;48.220;14.480;2023-03-24T03:56:59;20.00;;;11.53;;
17890;SDS011;9071;48.220;14.480;2023-03-24T04:02:06;18.50;;;11.30;;
17890;SDS011;9071;48.220;14.480;2023-03-24T04:07:18;18.37;;;10.97;;
17890;SDS011;9071;48.220;14.480;2023-03-24T04:12:27;16.10;;;11.40;;
17890;SDS011;9071;48.220;14.480;2023-03-24T04:17:58;14.13;;;10.43;;
17890;SDS011;9071;48.220;14.480;2023-03-24T04:23:14;15.70;;;11.17;;
17890;SDS011;9071;48.220;14.480;2023-03-24T04:28:29;19.63;;;12.20;;
17890;SDS011;9071;48.220;14.480;2023-03-24T04:33:40;21.60;;;12.40;;
17890;SDS011;9071;48.220;14.480;2023-03-24T04:38:50;18.97;;;10.77;;
17890;SDS011;9071;48.220;14.480;2023-03-24T04:43:54;17.60;;;11.27;;
17890;SDS011;9071;48.220;14.480;2023-03-24T04:48:59;15.37;;;11.13;;
17890;SDS011;9071;48.220;14.480;2023-03-24T04:54:02;16.70;;;11.27;;
17890;SDS011;9071;48.220;14.480;2023-03-24T04:59:05;16.47;;;11.10;;
17890;SDS011;9071;48.220;14.480;2023-03-24T05:04:09;14.23;;;10.73;;
17890;SDS011;9071;48.220;14.480;2023-03-24T05:09:11;15.10;;;11.37;;
17890;SDS011;9071;48.220;14.480;2023-03-24T05:14:14;14.03;;;10.37;;
17890;SDS011;9071;48.220;14.480;2023-03-24T05:19:18;17.00;;;11.30;;
17890;SDS011;9071;48.220;14.480;2023-03-24T05:24:20;15.47;;;10.97;;
17890;SDS011;9071;48.220;14.480;2023-03-24T05:29:22;16.33;;;10.13;;
17890;SDS011;9071;48.220;14.480;2023-03-24T05:34:26;16.23;;;11.70;;
17890;SDS011;9071;48.220;14.480;2023-03-24T05:39:28;15.10;;;11.00;;
17890;SDS011;9071;48.220;14.480;2023-03-24T05:44:30;16.83;;;10.20;;
17890;SDS011;9071;48.220;14.480;2023-03-24T05:49:34;15.67;;;10.60;;
17890;SDS011;9071;48.220;14.480;2023-03-24T05:54:37;17.83;;;11.10;;
17890;SDS011;9071;48.220;14.480;2023-03-24T05:59:39;16.53;;;10.63;;
17890;SDS011;9071;48.220;14.480;2023-03-24T06:04:43;18.37;;;10.90;;
17890;SDS011;9071;48.220;14.480;2023-03-24T06:09:48;17.57;;;10.60;;
17890;SDS011;9071;48.220;14.480;2023-03-24T06:14:51;17.60;;;11.97;;
17890;SDS011;9071;48.220;14.480;2023-03-24T06:19:55;17.70;;;11.87;;
17890;SDS011;9071;48.220;14.480;2023-03-24T06:25:05;16.17;;;10.83;;
17890;SDS011;9071;48.220;14.480;2023-03-24T06:30:09;17.23;;;10.07;;
17890;SDS011;9071;48.220;14.480;2023-03-24T06:35:13;15.33;;;9.50;;
17890;SDS011;9071;48.220;14.480;2023-03-24T06:40:16;12.93;;;9.40;;
17890;SDS011;9071;48.220;14.480;2023-03-24T06:45:18;15.43;;;8.60;;
17890;SDS011;9071;48.220;14.480;2023-03-24T06:50:22;18.53;;;8.77;;
17890;SDS011;9071;48.220;14.480;2023-03-24T06:55:26;16.43;;;9.60;;
17890;SDS011;9071;48.220;14.480;2023-03-24T07:00:28;14.27;;;9.93;;
17890;SDS011;9071;48.220;14.480;2023-03-24T07:05:31;10.20;;;8.30;;
17890;SDS011;9071;48.220;14.480;2023-03-24T07:10:34;10.33;;;7.73;;
17890;SDS011;9071;48.220;14.480;2023-03-24T07:15:36;16.03;;;9.13;;
17890;SDS011;9071;48.220;14.480;2023-03-24T07:20:40;12.77;;;8.97;;
17890;SDS011;9071;48.220;14.480;2023-03-24T07:25:42;13.77;;;10.10;;
17890;SDS011;9071;48.220;14.480;2023-03-24T07:30:44;14.93;;;9.70;;
17890;SDS011;9071;48.220;14.480;2023-03-24T07:35:48;14.77;;;10.50;;
17890;SDS011;9071;48.220;14.480;2023-03-24T07:40:53;11.93;;;9.67;;
17890;SDS011;9071;48.220;14.480;2023-03-24T07:45:58;15.43;;;10.07;;
17890;SDS011;9071;48.220;14.480;2023-03-24T07:51:01;15.03;;;9.87;;
17890;SDS011;9071;48.220;14.480;2023-03-24T07:56:04;11.47;;;9.27;;
17890;SDS011;9071;48.220;14.480;2023-03-24T08:01:07;16.03;;;10.40;;
17890;SDS011;9071;48.220;14.480;2023-03-24T08:06:10;14.67;;;10.47;;
17890;SDS011;9071;48.220;14.480;2023-03-24T08:11:12;26.50;;;10.70;;
17890;SDS011;9071;48.220;14.480;2023-03-24T08:16:15;15.07;;;9.97;;
17890;SDS011;9071;48.220;14.480;2023-03-24T08:21:19;14.20;;;9.63;;
17890;SDS011;9071;48.220;14.480;2023-03-24T08:26:21;16.10;;;9.88;;
17890;SDS011;9071;48.220;14.480;2023-03-24T08:31:30;12.13;;;9.23;;
17890;SDS011;9071;48.220;14.480;2023-03-24T08:36:33;17.35;;;9.30;;
17890;SDS011;9071;48.220;14.480;2023-03-24T08:41:36;12.23;;;8.60;;
17890;SDS011;9071;48.220;14.480;2023-03-24T08:46:38;14.23;;;8.68;;
17890;SDS011;9071;48.220;14.480;2023-03-24T08:51:41;10.10;;;7.75;;
17890;SDS011;9071;48.220;14.480;2023-03-24T08:56:44;13.75;;;7.82;;
17890;SDS011;9071;48.220;14.480;2023-03-24T09:01:46;18.80;;;10.07;;
17890;SDS011;9071;48.220;14.480;2023-03-24T09:06:49;16.55;;;10.80;;
17890;SDS011;9071;48.220;14.480;2023-03-24T09:11:59;20.55;;;11.30;;
17890;SDS011;9071;48.220;14.480;2023-03-24T09:17:01;12.45;;;10.15;;
17890;SDS011;9071;48.220;14.480;2023-03-24T09:22:05;15.60;;;10.88;;
17890;SDS011;9071;48.220;14.480;2023-03-24T09:27:07;13.75;;;9.73;;
17890;SDS011;9071;48.220;14.480;2023-03-24T09:32:09;13.55;;;9.43;;
17890;SDS011;9071;48.220;14.480;2023-03-24T09:37:12;18.58;;;10.07;;
17890;SDS011;9071;48.220;14.480;2023-03-24T09:42:17;12.35;;;9.63;;
17890;SDS011;9071;48.220;14.480;2023-03-24T09:47:24;18.55;;;9.38;;
17890;SDS011;9071;48.220;14.480;2023-03-24T09:52:32;17.55;;;10.00;;
17890;SDS011;9071;48.220;14.480;2023-03-24T09:57:40;24.23;;;11.38;;
17890;SDS011;9071;48.220;14.480;2023-03-24T10:02:45;14.85;;;9.55;;
17890;SDS011;9071;48.220;14.480;2023-03-24T10:07:51;17.52;;;9.60;;
17890;SDS011;9071;48.220;14.480;2023-03-24T10:13:01;18.85;;;9.95;;
17890;SDS011;9071;48.220;14.480;2023-03-24T10:18:13;15.27;;;9.82;;
17890;SDS011;9071;48.220;14.480;2023-03-24T10:23:32;21.67;;;10.70;;
17890;SDS011;9071;48.220;14.480;2023-03-24T10:28:40;21.75;;;10.75;;
17890;SDS011;9071;48.220;14.480;2023-03-24T10:33:46;15.40;;;9.73;;
17890;SDS011;9071;48.220;14.480;2023-03-24T10:38:50;13.18;;;9.00;;
17890;SDS011;9071;48.220;14.480;2023-03-24T10:43:53;13.63;;;9.48;;
17890;SDS011;9071;48.220;14.480;2023-03-24T10:49:06;17.08;;;9.63;;
17890;SDS011;9071;48.220;14.480;2023-03-24T10:54:11;14.18;;;8.90;;
17890;SDS011;9071;48.220;14.480;2023-03-24T10:59:17;15.07;;;9.25;;
17890;SDS011;9071;48.220;14.480;2023-03-24T11:04:26;17.30;;;10.30;;
17890;SDS011;9071;48.220;14.480;2023-03-24T11:09:39;12.88;;;10.05;;
17890;SDS011;9071;48.220;14.480;2023-03-24T11:14:43;18.13;;;9.80;;
17890;SDS011;9071;48.220;14.480;2023-03-24T11:19:49;19.60;;;10.55;;
17890;SDS011;9071;48.220;14.480;2023-03-24T11:24:55;17.17;;;10.18;;
17890;SDS011;9071;48.220;14.480;2023-03-24T11:29:57;20.67;;;8.77;;
17890;SDS011;9071;48.220;14.480;2023-03-24T11:35:01;15.82;;;9.45;;
17890;SDS011;9071;48.220;14.480;2023-03-24T11:40:18;15.50;;;8.35;;
17890;SDS011;9071;48.220;14.480;2023-03-24T11:45:24;15.57;;;8.25;;
17890;SDS011;9071;48.220;14.480;2023-03-24T11:50:29;8.75;;;4.30;;
17890;SDS011;9071;48.220;14.480;2023-03-24T11:55:36;7.72;;;4.70;;
17890;SDS011;9071;48.220;14.480;2023-03-24T12:00:45;8.32;;;5.80;;
17890;SDS011;9071;48.220;14.480;2023-03-24T12:05:54;12.02;;;5.60;;
17890;SDS011;9071;48.220;14.480;2023-03-24T12:11:06;4.65;;;3.40;;
17890;SDS011;9071;48.220;14.480;2023-03-24T12:16:33;10.35;;;2.05;;
17890;SDS011;9071;48.220;14.480;2023-03-24T12:21:46;9.20;;;2.33;;
17890;SDS011;9071;48.220;14.480;2023-03-24T12:26:57;6.80;;;2.15;;
17890;SDS011;9071;48.220;14.480;2023-03-24T12:32:07;3.03;;;1.88;;
17890;SDS011;9071;48.220;14.480;2023-03-24T12:37:20;3.92;;;2.03;;
17890;SDS011;9071;48.220;14.480;2023-03-24T12:42:30;6.57;;;2.63;;
17890;SDS011;9071;48.220;14.480;2023-03-24T12:47:42;8.68;;;2.92;;
17890;SDS011;9071;48.220;14.480;2023-03-24T12:53:06;3.45;;;2.05;;
17890;SDS011;9071;48.220;14.480;2023-03-24T12:58:25;2.00;;;1.80;;
17890;SDS011;9071;48.220;14.480;2023-03-24T13:03:37;4.85;;;2.40;;
17890;SDS011;9071;48.220;14.480;2023-03-24T13:08:41;3.50;;;1.92;;
17890;SDS011;9071;48.220;14.480;2023-03-24T13:13:52;8.75;;;3.03;;
17890;SDS011;9071;48.220;14.480;2023-03-24T13:18:56;7.03;;;2.60;;
17890;SDS011;9071;48.220;14.480;2023-03-24T13:24:02;6.57;;;2.70;;
17890;SDS011;9071;48.220;14.480;2023-03-24T13:29:14;2.45;;;2.00;;
17890;SDS011;9071;48.220;14.480;2023-03-24T13:34:25;13.73;;;4.00;;
17890;SDS011;9071;48.220;14.480;2023-03-24T13:39:30;3.72;;;2.45;;
17890;SDS011;9071;48.220;14.480;2023-03-24T13:44:37;3.67;;;2.50;;
17890;SDS011;9071;48.220;14.480;2023-03-24T13:49:44;3.22;;;2.42;;
17890;SDS011;9071;48.220;14.480;2023-03-24T13:54:55;4.72;;;2.92;;
17890;SDS011;9071;48.220;14.480;2023-03-24T14:00:14;10.03;;;3.20;;
17890;SDS011;9071;48.220;14.480;2023-03-24T14:10:43;5.53;;;3.90;;
17890;SDS011;9071;48.220;14.480;2023-03-24T14:15:49;3.47;;;3.17;;
17890;SDS011;9071;48.220;14.480;2023-03-24T14:20:57;5.20;;;3.93;;
17890;SDS011;9071;48.220;14.480;2023-03-24T14:26:01;4.60;;;3.53;;
17890;SDS011;9071;48.220;14.480;2023-03-24T14:31:09;3.77;;;3.40;;
17890;SDS011;9071;48.220;14.480;2023-03-24T14:36:44;5.40;;;3.70;;
17890;SDS011;9071;48.220;14.480;2023-03-24T14:41:48;5.20;;;4.00;;
17890;SDS011;9071;48.220;14.480;2023-03-24T14:46:53;9.35;;;4.50;;
17890;SDS011;9071;48.220;14.480;2023-03-24T14:51:59;4.60;;;3.58;;
17890;SDS011;9071;48.220;14.480;2023-03-24T14:57:12;7.88;;;3.55;;
17890;SDS011;9071;48.220;14.480;2023-03-24T15:02:25;6.43;;;4.23;;
17890;SDS011;9071;48.220;14.480;2023-03-24T15:07:32;5.83;;;4.23;;
17890;SDS011;9071;48.220;14.480;2023-03-24T15:12:34;6.90;;;4.67;;
17890;SDS011;9071;48.220;14.480;2023-03-24T15:17:39;7.73;;;5.30;;
17890;SDS011;9071;48.220;14.480;2023-03-24T15:22:43;7.23;;;4.47;;
17890;SDS011;9071;48.220;14.480;2023-03-24T15:27:47;8.97;;;4.83;;
17890;SDS011;9071;48.220;14.480;2023-03-24T15:32:52;10.47;;;5.60;;
17890;SDS011;9071;48.220;14.480;2023-03-24T15:37:55;6.77;;;5.33;;
17890;SDS011;9071;48.220;14.480;2023-03-24T15:42:57;8.23;;;5.47;;
17890;SDS011;9071;48.220;14.480;2023-03-24T15:48:06;7.90;;;5.90;;
17890;SDS011;9071;48.220;14.480;2023-03-24T15:53:21;10.00;;;7.27;;
17890;SDS011;9071;48.220;14.480;2023-03-24T15:58:27;13.77;;;8.50;;
17890;SDS011;9071;48.220;14.480;2023-03-24T16:03:32;11.07;;;7.93;;
17890;SDS011;9071;48.220;14.480;2023-03-24T16:08:35;10.70;;;7.57;;
17890;SDS011;9071;48.220;14.480;2023-03-24T16:13:40;11.43;;;6.77;;
17890;SDS011;9071;48.220;14.480;2023-03-24T16:18:46;8.87;;;6.13;;
17890;SDS011;9071;48.220;14.480;2023-03-24T16:23:49;6.67;;;5.77;;
17890;SDS011;9071;48.220;14.480;2023-03-24T16:28:53;9.67;;;6.63;;
17890;SDS011;9071;48.220;14.480;2023-03-24T16:34:01;8.00;;;7.00;;
17890;SDS011;9071;48.220;14.480;2023-03-24T16:39:05;7.73;;;6.03;;
17890;SDS011;9071;48.220;14.480;2023-03-24T16:44:14;8.67;;;6.30;;
17890;SDS011;9071;48.220;14.480;2023-03-24T16:49:18;10.53;;;7.47;;
17890;SDS011;9071;48.220;14.480;2023-03-24T16:54:21;9.03;;;7.23;;
17890;SDS011;9071;48.220;14.480;2023-03-24T16:59:23;10.00;;;8.13;;
17890;SDS011;9071;48.220;14.480;2023-03-24T17:04:30;22.27;;;13.73;;
17890;SDS011;9071;48.220;14.480;2023-03-24T17:09:33;21.30;;;14.17;;
17890;SDS011;9071;48.220;14.480;2023-03-24T17:14:35;16.20;;;12.10;;
17890;SDS011;9071;48.220;14.480;2023-03-24T17:19:38;27.87;;;19.93;;
17890;SDS011;9071;48.220;14.480;2023-03-24T17:24:41;23.67;;;17.80;;
17890;SDS011;9071;48.220;14.480;2023-03-24T17:29:44;26.40;;;18.20;;
17890;SDS011;9071;48.220;14.480;2023-03-24T17:34:47;20.37;;;15.27;;
17890;SDS011;9071;48.220;14.480;2023-03-24T17:39:50;20.33;;;15.60;;
17890;SDS011;9071;48.220;14.480;2023-03-24T17:44:54;18.10;;;13.20;;
17890;SDS011;9071;48.220;14.480;2023-03-24T17:49:58;15.70;;;11.40;;
17890;SDS011;9071;48.220;14.480;2023-03-24T17:55:00;16.13;;;12.40;;
17890;SDS011;9071;48.220;14.480;2023-03-24T18:00:09;19.00;;;13.23;;
17890;SDS011;9071;48.220;14.480;2023-03-24T18:05:13;20.93;;;16.00;;
17890;SDS011;9071;48.220;14.480;2023-03-24T18:10:15;17.80;;;13.43;;
17890;SDS011;9071;48.220;14.480;2023-03-24T18:15:18;20.83;;;14.83;;
17890;SDS011;9071;48.220;14.480;2023-03-24T18:20:21;16.80;;;13.00;;
17890;SDS011;9071;48.220;14.480;2023-03-24T18:25:26;20.07;;;12.30;;
17890;SDS011;9071;48.220;14.480;2023-03-24T18:30:28;15.60;;;11.43;;
17890;SDS011;9071;48.220;14.480;2023-03-24T18:35:32;17.23;;;11.47;;
17890;SDS011;9071;48.220;14.480;2023-03-24T18:40:35;20.10;;;14.37;;
17890;SDS011;9071;48.220;14.480;2023-03-24T18:45:37;18.07;;;13.53;;
17890;SDS011;9071;48.220;14.480;2023-03-24T18:50:40;19.87;;;12.53;;
17890;SDS011;9071;48.220;14.480;2023-03-24T18:55:42;14.73;;;11.17;;
17890;SDS011;9071;48.220;14.480;2023-03-24T19:00:47;15.93;;;12.47;;
17890;SDS011;9071;48.220;14.480;2023-03-24T19:05:51;15.03;;;11.23;;
17890;SDS011;9071;48.220;14.480;2023-03-24T19:10:54;14.27;;;10.33;;
17890;SDS011;9071;48.220;14.480;2023-03-24T19:15:56;12.17;;;8.63;;
17890;SDS011;9071;48.220;14.480;2023-03-24T19:20:59;7.20;;;6.23;;
17890;SDS011;9071;48.220;14.480;2023-03-24T19:26:02;5.17;;;3.80;;
17890;SDS011;9071;48.220;14.480;2023-03-24T19:31:05;4.73;;;2.60;;
17890;SDS011;9071;48.220;14.480;2023-03-24T19:36:10;5.93;;;3.30;;
17890;SDS011;9071;48.220;14.480;2023-03-24T19:41:12;2.83;;;1.50;;
17890;SDS011;9071;48.220;14.480;2023-03-24T19:46:15;1.50;;;1.40;;
17890;SDS011;9071;48.220;14.480;2023-03-24T19:51:21;2.00;;;1.37;;
17890;SDS011;9071;48.220;14.480;2023-03-24T19:56:23;2.80;;;1.40;;
17890;SDS011;9071;48.220;14.480;2023-03-24T20:01:25;1.40;;;0.90;;
17890;SDS011;9071;48.220;14.480;2023-03-24T20:06:35;0.97;;;0.97;;
17890;SDS011;9071;48.220;14.480;2023-03-24T20:11:37;0.93;;;0.80;;
17890;SDS011;9071;48.220;14.480;2023-03-24T20:16:40;1.23;;;0.80;;
17890;SDS011;9071;48.220;14.480;2023-03-24T20:21:44;1.47;;;0.80;;
17890;SDS011;9071;48.220;14.480;2023-03-24T20:26:46;1.73;;;1.07;;
17890;SDS011;9071;48.220;14.480;2023-03-24T20:31:48;0.70;;;0.70;;
17890;SDS011;9071;48.220;14.480;2023-03-24T20:36:52;0.97;;;0.70;;
17890;SDS011;9071;48.220;14.480;2023-03-24T20:41:54;0.93;;;0.60;;
17890;SDS011;9071;48.220;14.480;2023-03-24T20:46:56;0.50;;;0.40;;
17890;SDS011;9071;48.220;14.480;2023-03-24T20:52:01;0.90;;;0.60;;
17890;SDS011;9071;48.220;14.480;2023-03-24T20:57:03;1.27;;;0.90;;
17890;SDS011;9071;48.220;14.480;2023-03-24T21:02:05;0.63;;;0.50;;
17890;SDS011;9071;48.220;14.480;2023-03-24T21:07:10;0.50;;;0.50;;
17890;SDS011;9071;48.220;14.480;2023-03-24T21:12:12;1.40;;;0.50;;
17890;SDS011;9071;48.220;14.480;2023-03-24T21:17:15;3.00;;;0.57;;
17890;SDS011;9071;48.220;14.480;2023-03-24T21:22:20;1.00;;;0.80;;
17890;SDS011;9071;48.220;14.480;2023-03-24T21:27:26;1.50;;;0.90;;
17890;SDS011;9071;48.220;14.480;2023-03-24T21:32:29;0.53;;;0.53;;
17890;SDS011;9071;48.220;14.480;2023-03-24T21:43:10;0.73;;;0.57;;
17890;SDS011;9071;48.220;14.480;2023-03-24T21:48:13;0.93;;;0.60;;
17890;SDS011;9071;48.220;14.480;2023-03-24T21:53:20;0.70;;;0.67;;
17890;SDS011;9071;48.220;14.480;2023-03-24T21:58:25;0.93;;;0.60;;
17890;SDS011;9071;48.220;14.480;2023-03-24T22:03:28;0.53;;;0.50;;
17890;SDS011;9071;48.220;14.480;2023-03-24T22:08:34;0.60;;;0.60;;
17890;SDS011;9071;48.220;14.480;2023-03-24T22:13:37;0.80;;;0.70;;
17890;SDS011;9071;48.220;14.480;2023-03-24T22:18:39;0.50;;;0.50;;
17890;SDS011;9071;48.220;14.480;2023-03-24T22:23:43;0.83;;;0.60;;
17890;SDS011;9071;48.220;14.480;2023-03-24T22:28:45;0.70;;;0.50;;
17890;SDS011;9071;48.220;14.480;2023-03-24T22:33:47;0.50;;;0.50;;
17890;SDS011;9071;48.220;14.480;2023-03-24T22:38:50;0.60;;;0.60;;
17890;SDS011;9071;48.220;14.480;2023-03-24T22:43:52;0.43;;;0.40;;
17890;SDS011;9071;48.220;14.480;2023-03-24T22:48:55;0.50;;;0.50;;
17890;SDS011;9071;48.220;14.480;2023-03-24T22:53:58;2.97;;;0.70;;
17890;SDS011;9071;48.220;14.480;2023-03-24T22:59:05;0.80;;;0.50;;
17890;SDS011;9071;48.220;14.480;2023-03-24T23:04:11;0.43;;;0.40;;
17890;SDS011;9071;48.220;14.480;2023-03-24T23:09:14;0.57;;;0.57;;
17890;SDS011;9071;48.220;14.480;2023-03-24T23:14:17;0.50;;;0.40;;
17890;SDS011;9071;48.220;14.480;2023-03-24T23:19:19;0.40;;;0.40;;
17890;SDS011;9071;48.220;14.480;2023-03-24T23:24:23;1.37;;;0.70;;
17890;SDS011;9071;48.220;14.480;2023-03-24T23:29:26;1.00;;;0.60;;
17890;SDS011;9071;48.220;14.480;2023-03-24T23:34:29;1.27;;;0.80;;
17890;SDS011;9071;48.220;14.480;2023-03-24T23:39:35;1.30;;;0.60;;
17890;SDS011;9071;48.220;14.480;2023-03-24T23:44:39;0.87;;;0.60;;
17890;SDS011;9071;48.220;14.480;2023-03-24T23:49:41;0.60;;;0.60;;
17890;SDS011;9071;48.220;14.480;2023-03-24T23:54:45;0.70;;;0.70;;
17890;SDS011;9071;48.220;14.480;2023-03-24T23:59:47;1.17;;;0.67;;
